createdAt,value
2023-03-14T00:07:30.471Z,96.3
2023-03-14T00:22:30.561Z,97.0
2023-03-14T00:27:30.453Z,97.0
2023-03-14T00:32:30.493Z,100.0
2023-03-14T00:37:30.480Z,100.0
2023-03-14T00:42:30.452Z,100.0
2023-03-14T00:47:30.455Z,100.0
2023-03-14T01:02:30.531Z,99.7
2023-03-14T01:07:30.496Z,98.4
2023-03-14T01:12:30.518Z,96.3
2023-03-14T01:17:30.486Z,95.1
2023-03-14T01:32:30.523Z,90.0
2023-03-14T01:37:30.493Z,89.5
2023-03-14T01:47:30.494Z,89.3
2023-03-14T01:52:30.517Z,89.7
2023-03-14T01:57:30.519Z,91.1
2023-03-14T02:07:30.653Z,90.1
2023-03-14T02:12:30.532Z,89.3
2023-03-14T02:17:30.498Z,90.1
2023-03-14T02:22:30.532Z,89.6
2023-03-14T02:27:30.496Z,100.0
2023-03-14T02:32:30.566Z,100.0
2023-03-14T02:57:30.511Z,100.0
2023-03-14T03:02:30.486Z,100.0
2023-03-14T03:07:30.534Z,100.0
2023-03-14T03:27:30.523Z,100.0
2023-03-14T03:32:30.602Z,100.0
2023-03-14T03:37:30.558Z,100.0
2023-03-14T03:42:30.539Z,100.0
2023-03-14T03:47:30.508Z,99.7
2023-03-14T03:52:30.515Z,99.2
2023-03-14T04:02:30.643Z,97.6
2023-03-14T04:07:30.540Z,97.6
2023-03-14T04:12:30.547Z,96.4
2023-03-14T04:22:30.875Z,95.4
2023-03-14T05:02:30.646Z,94.9
2023-03-14T05:07:30.543Z,94.6
2023-03-14T05:22:30.586Z,95.2
2023-03-14T05:27:30.580Z,96.3
2023-03-14T05:32:30.606Z,98.6
2023-03-14T06:02:30.589Z,100.0
2023-03-14T06:07:30.549Z,100.0
2023-03-14T06:12:30.977Z,100.0
2023-03-14T06:17:30.586Z,100.0
2023-03-14T06:22:30.540Z,100.0
2023-03-14T06:27:30.575Z,100.0
2023-03-14T06:32:30.587Z,100.0
2023-03-14T06:37:30.588Z,100.0
2023-03-14T06:52:30.668Z,100.0
2023-03-14T07:07:30.565Z,100.0
2023-03-14T07:17:30.613Z,100.0
2023-03-14T07:37:30.581Z,100.0
2023-03-14T07:42:30.584Z,100.0
2023-03-14T07:47:30.613Z,100.0
2023-03-14T07:52:30.586Z,100.0
2023-03-14T07:57:30.602Z,100.0
2023-03-14T08:02:30.642Z,100.0
2023-03-14T08:07:30.632Z,100.0
2023-03-14T08:12:30.589Z,100.0
2023-03-14T08:17:30.626Z,100.0
2023-03-14T08:22:30.625Z,100.0
2023-03-14T08:27:30.629Z,100.0
2023-03-14T08:32:30.652Z,100.0
2023-03-14T08:37:30.638Z,100.0
2023-03-14T08:42:30.611Z,100.0
2023-03-14T08:47:30.600Z,100.0
2023-03-14T08:52:30.668Z,100.0
2023-03-14T08:57:30.631Z,100.0
2023-03-14T09:02:30.625Z,100.0
2023-03-14T09:07:30.639Z,100.0
2023-03-14T09:12:30.637Z,100.0
2023-03-14T09:17:30.645Z,100.0
2023-03-14T09:22:30.638Z,100.0
2023-03-14T09:27:30.646Z,100.0
2023-03-14T09:32:30.636Z,100.0
2023-03-14T09:42:30.647Z,100.0
2023-03-14T09:47:30.628Z,100.0
2023-03-14T09:52:30.630Z,99.2
2023-03-14T09:57:30.654Z,89.3
2023-03-14T10:02:30.624Z,93.1
2023-03-14T10:12:30.756Z,92.9
2023-03-14T10:17:30.655Z,94.1
2023-03-14T10:27:30.671Z,89.4
2023-03-14T10:32:30.641Z,88.5
2023-03-14T10:42:30.664Z,89.2
2023-03-14T10:47:30.647Z,85.6
2023-03-14T10:52:40.513Z,87.2
2023-03-14T10:57:30.697Z,89.9
2023-03-14T11:02:30.629Z,89.9
2023-03-14T11:07:30.652Z,88.8
2023-03-14T11:12:30.654Z,93.9
2023-03-14T11:17:30.676Z,90.0
2023-03-14T11:22:30.670Z,88.9
2023-03-14T11:27:30.681Z,86.9
2023-03-14T11:32:30.696Z,79.2
2023-03-14T11:42:30.665Z,80.0
2023-03-14T11:47:30.671Z,77.0
2023-03-14T11:52:30.666Z,75.6
2023-03-14T11:57:30.665Z,74.9
2023-03-14T12:02:30.698Z,77.1
2023-03-14T12:07:30.648Z,71.6
2023-03-14T12:12:30.685Z,64.6
2023-03-14T12:17:30.690Z,60.6
2023-03-14T12:22:30.673Z,55.9
2023-03-14T12:27:30.672Z,62.4
2023-03-14T12:32:30.684Z,58.7
2023-03-14T12:37:30.662Z,58.3
2023-03-14T12:42:44.069Z,55.0
2023-03-14T12:47:30.665Z,47.0
2023-03-14T12:52:30.664Z,49.2
2023-03-14T12:57:30.674Z,48.5
2023-03-14T13:02:30.667Z,50.4
2023-03-14T13:07:30.665Z,48.5
2023-03-14T13:12:30.698Z,49.1
2023-03-14T13:17:36.248Z,48.1
2023-03-14T13:22:30.715Z,53.9
2023-03-14T13:27:30.695Z,50.1
2023-03-14T13:32:30.711Z,51.6
2023-03-14T13:37:30.698Z,46.9
2023-03-14T13:42:30.742Z,50.3
2023-03-14T13:47:30.688Z,42.5
2023-03-14T13:52:30.695Z,44.9
2023-03-14T14:02:30.701Z,46.1
2023-03-14T14:07:30.692Z,41.8
2023-03-14T14:12:30.869Z,47.9
2023-03-14T14:22:30.733Z,37.6
2023-03-14T14:27:30.731Z,42.1
2023-03-14T14:32:30.727Z,46.2
2023-03-14T14:37:32.188Z,43.7
2023-03-14T14:42:30.689Z,43.7
2023-03-14T14:52:30.730Z,39.1
2023-03-14T14:57:30.738Z,36.2
2023-03-14T15:02:30.805Z,41.9
2023-03-14T15:07:30.731Z,40.6
2023-03-14T15:12:30.748Z,42.9
2023-03-14T15:17:30.708Z,44.8
2023-03-14T15:22:30.735Z,46.4
2023-03-14T15:27:30.711Z,40.4
2023-03-14T15:32:30.735Z,41.3
2023-03-14T15:37:30.749Z,44.2
2023-03-14T15:42:30.714Z,42.9
2023-03-14T15:47:30.717Z,45.7
2023-03-14T15:52:30.761Z,44.3
2023-03-14T15:57:30.766Z,49.5
2023-03-14T16:02:30.721Z,49.8
2023-03-14T16:07:32.498Z,46.1
2023-03-14T16:12:30.751Z,47.8
2023-03-14T16:17:30.736Z,48.1
2023-03-14T16:22:30.769Z,51.4
2023-03-14T16:37:30.767Z,50.6
2023-03-14T16:42:30.773Z,55.0
2023-03-14T16:47:30.724Z,49.6
2023-03-14T16:57:30.767Z,51.9
2023-03-14T17:02:30.745Z,48.2
2023-03-14T17:07:30.780Z,52.4
2023-03-14T17:12:30.760Z,50.3
2023-03-14T17:17:30.772Z,50.8
2023-03-14T17:27:30.755Z,52.6
2023-03-14T17:32:30.813Z,50.7
2023-03-14T17:37:30.730Z,51.4
2023-03-14T17:42:30.769Z,52.5
2023-03-14T17:47:30.741Z,54.8
2023-03-14T17:52:30.836Z,55.1
2023-03-14T17:57:30.777Z,55.1
2023-03-14T18:02:30.872Z,58.4
2023-03-14T18:07:30.768Z,59.3
2023-03-14T18:12:30.778Z,53.7
2023-03-14T18:17:31.913Z,55.4
2023-03-14T18:22:31.017Z,55.4
2023-03-14T18:32:30.831Z,55.7
2023-03-14T18:47:30.785Z,57.2
2023-03-14T18:52:30.766Z,55.2
2023-03-14T19:02:30.859Z,56.8
2023-03-14T19:07:30.774Z,59.6
2023-03-14T19:12:30.825Z,58.2
2023-03-14T19:17:30.823Z,58.2
2023-03-14T19:22:30.797Z,58.8
2023-03-14T19:27:30.804Z,59.8
2023-03-14T19:32:30.791Z,61.0
2023-03-14T19:37:30.812Z,62.5
2023-03-14T19:42:30.792Z,62.5
2023-03-14T19:47:30.799Z,64.1
2023-03-14T19:52:30.790Z,64.9
2023-03-14T19:57:30.800Z,66.9
2023-03-14T20:02:30.876Z,66.6
2023-03-14T20:07:30.787Z,67.9
2023-03-14T20:12:30.807Z,69.4
2023-03-14T20:17:30.814Z,70.8
2023-03-14T20:27:30.804Z,71.5
2023-03-14T20:32:30.839Z,72.2
2023-03-14T20:37:30.812Z,72.8
2023-03-14T20:42:31.902Z,73.6
2023-03-14T20:47:30.832Z,73.6
2023-03-14T20:52:30.824Z,73.4
2023-03-14T20:57:30.802Z,73.2
2023-03-14T21:02:30.800Z,72.8
2023-03-14T21:07:30.793Z,71.8
2023-03-14T21:12:30.815Z,70.2
2023-03-14T21:17:30.813Z,70.9
2023-03-14T21:32:30.832Z,70.9
2023-03-14T21:37:30.815Z,71.6
2023-03-14T21:42:30.812Z,69.8
2023-03-14T21:47:30.850Z,71.7
2023-03-14T21:52:30.813Z,72.6
2023-03-14T21:57:30.812Z,75.1
2023-03-14T22:02:30.958Z,80.3
2023-03-14T22:07:30.811Z,84.4
2023-03-14T22:17:30.813Z,86.7
2023-03-14T22:22:30.820Z,87.9
2023-03-14T22:37:30.827Z,87.6
2023-03-14T22:42:30.832Z,89.0
2023-03-14T22:47:30.817Z,92.4
2023-03-14T22:57:30.819Z,94.7
2023-03-14T23:02:30.824Z,93.9
2023-03-14T23:17:30.837Z,99.4
2023-03-14T23:22:30.828Z,100.0
2023-03-14T23:32:30.890Z,100.0
2023-03-14T23:42:30.845Z,100.0
2023-03-14T23:52:30.843Z,100.0
